sensor_id;sensor_type;location;lat;lon;timestamp;P1;durP1;ratioP1;P2;durP2;ratioP2
26742;SDS011;14341;51.256;22.478;2023-03-01T00:00:40;143.20;;;69.95;;
26742;SDS011;14341;51.256;22.478;2023-03-01T00:03:48;146.02;;;72.60;;
26742;SDS011;14341;51.256;22.478;2023-03-01T00:06:51;153.90;;;77.38;;
26742;SDS011;14341;51.256;22.478;2023-03-01T00:09:58;144.68;;;70.22;;
26742;SDS011;14341;51.256;22.478;2023-03-01T00:13:03;155.75;;;73.93;;
26742;SDS011;14341;51.256;22.478;2023-03-01T00:16:07;129.55;;;64.82;;
26742;SDS011;14341;51.256;22.478;2023-03-01T00:19:14;144.25;;;69.25;;
26742;SDS011;14341;51.256;22.478;2023-03-01T00:22:19;129.25;;;65.55;;
26742;SDS011;14341;51.256;22.478;2023-03-01T00:25:24;184.93;;;83.25;;
26742;SDS011;14341;51.256;22.478;2023-03-01T00:28:28;125.47;;;62.58;;
26742;SDS011;14341;51.256;22.478;2023-03-01T00:31:31;122.40;;;61.08;;
26742;SDS011;14341;51.256;22.478;2023-03-01T00:34:35;123.57;;;62.75;;
26742;SDS011;14341;51.256;22.478;2023-03-01T00:37:38;148.55;;;67.72;;
26742;SDS011;14341;51.256;22.478;2023-03-01T00:40:44;126.80;;;61.85;;
26742;SDS011;14341;51.256;22.478;2023-03-01T00:43:47;118.07;;;59.22;;
26742;SDS011;14341;51.256;22.478;2023-03-01T00:46:50;116.28;;;58.45;;
26742;SDS011;14341;51.256;22.478;2023-03-01T00:49:53;111.97;;;56.08;;
26742;SDS011;14341;51.256;22.478;2023-03-01T00:52:57;109.63;;;54.55;;
26742;SDS011;14341;51.256;22.478;2023-03-01T00:56:02;107.72;;;55.05;;
26742;SDS011;14341;51.256;22.478;2023-03-01T00:59:06;102.20;;;53.80;;
26742;SDS011;14341;51.256;22.478;2023-03-01T01:02:09;96.35;;;51.70;;
26742;SDS011;14341;51.256;22.478;2023-03-01T01:05:12;101.53;;;51.85;;
26742;SDS011;14341;51.256;22.478;2023-03-01T01:08:16;105.57;;;52.90;;
26742;SDS011;14341;51.256;22.478;2023-03-01T01:11:22;97.38;;;49.20;;
26742;SDS011;14341;51.256;22.478;2023-03-01T01:14:26;93.15;;;50.35;;
26742;SDS011;14341;51.256;22.478;2023-03-01T01:17:30;92.78;;;49.55;;
26742;SDS011;14341;51.256;22.478;2023-03-01T01:20:34;99.00;;;52.75;;
26742;SDS011;14341;51.256;22.478;2023-03-01T01:23:38;102.28;;;51.58;;
26742;SDS011;14341;51.256;22.478;2023-03-01T01:26:44;101.82;;;52.67;;
26742;SDS011;14341;51.256;22.478;2023-03-01T01:29:47;100.70;;;52.42;;
26742;SDS011;14341;51.256;22.478;2023-03-01T01:32:50;97.70;;;50.65;;
26742;SDS011;14341;51.256;22.478;2023-03-01T01:35:54;97.88;;;53.75;;
26742;SDS011;14341;51.256;22.478;2023-03-01T01:38:57;98.63;;;51.88;;
26742;SDS011;14341;51.256;22.478;2023-03-01T01:42:02;106.65;;;54.38;;
26742;SDS011;14341;51.256;22.478;2023-03-01T01:48:37;108.25;;;54.25;;
26742;SDS011;14341;51.256;22.478;2023-03-01T01:51:45;110.63;;;54.47;;
26742;SDS011;14341;51.256;22.478;2023-03-01T01:54:53;107.78;;;55.08;;
26742;SDS011;14341;51.256;22.478;2023-03-01T01:58:02;104.68;;;54.38;;
26742;SDS011;14341;51.256;22.478;2023-03-01T02:01:06;109.20;;;56.88;;
26742;SDS011;14341;51.256;22.478;2023-03-01T02:04:10;113.75;;;56.35;;
26742;SDS011;14341;51.256;22.478;2023-03-01T02:07:14;106.00;;;53.88;;
26742;SDS011;14341;51.256;22.478;2023-03-01T02:10:19;110.07;;;57.03;;
26742;SDS011;14341;51.256;22.478;2023-03-01T02:13:24;120.05;;;58.83;;
26742;SDS011;14341;51.256;22.478;2023-03-01T02:16:28;115.97;;;57.70;;
26742;SDS011;14341;51.256;22.478;2023-03-01T02:19:37;107.55;;;57.50;;
26742;SDS011;14341;51.256;22.478;2023-03-01T02:22:51;110.55;;;56.67;;
26742;SDS011;14341;51.256;22.478;2023-03-01T02:25:58;116.82;;;56.72;;
26742;SDS011;14341;51.256;22.478;2023-03-01T02:29:07;84.18;;;42.80;;
26742;SDS011;14341;51.256;22.478;2023-03-01T02:32:11;101.53;;;54.10;;
26742;SDS011;14341;51.256;22.478;2023-03-01T02:35:17;99.95;;;53.78;;
26742;SDS011;14341;51.256;22.478;2023-03-01T02:38:21;103.95;;;54.90;;
26742;SDS011;14341;51.256;22.478;2023-03-01T02:41:26;99.95;;;52.67;;
26742;SDS011;14341;51.256;22.478;2023-03-01T02:44:34;110.97;;;57.15;;
26742;SDS011;14341;51.256;22.478;2023-03-01T02:47:38;103.35;;;54.25;;
26742;SDS011;14341;51.256;22.478;2023-03-01T02:50:45;95.72;;;52.25;;
26742;SDS011;14341;51.256;22.478;2023-03-01T02:54:01;99.28;;;53.88;;
26742;SDS011;14341;51.256;22.478;2023-03-01T02:57:13;107.22;;;55.60;;
26742;SDS011;14341;51.256;22.478;2023-03-01T03:03:56;102.03;;;54.00;;
26742;SDS011;14341;51.256;22.478;2023-03-01T03:06:59;101.78;;;54.40;;
26742;SDS011;14341;51.256;22.478;2023-03-01T03:10:03;106.18;;;54.72;;
26742;SDS011;14341;51.256;22.478;2023-03-01T03:13:09;103.05;;;54.97;;
26742;SDS011;14341;51.256;22.478;2023-03-01T03:16:13;108.38;;;56.40;;
26742;SDS011;14341;51.256;22.478;2023-03-01T03:19:18;104.00;;;56.47;;
26742;SDS011;14341;51.256;22.478;2023-03-01T03:22:21;111.03;;;57.08;;
26742;SDS011;14341;51.256;22.478;2023-03-01T03:25:25;103.22;;;55.55;;
26742;SDS011;14341;51.256;22.478;2023-03-01T03:28:29;110.05;;;54.28;;
26742;SDS011;14341;51.256;22.478;2023-03-01T03:31:33;111.78;;;57.15;;
26742;SDS011;14341;51.256;22.478;2023-03-01T03:34:38;114.20;;;57.63;;
26742;SDS011;14341;51.256;22.478;2023-03-01T03:37:41;116.35;;;57.83;;
26742;SDS011;14341;51.256;22.478;2023-03-01T03:41:02;109.03;;;58.10;;
26742;SDS011;14341;51.256;22.478;2023-03-01T03:44:08;125.63;;;61.33;;
26742;SDS011;14341;51.256;22.478;2023-03-01T03:47:11;121.55;;;60.17;;
26742;SDS011;14341;51.256;22.478;2023-03-01T03:50:17;122.03;;;59.95;;
26742;SDS011;14341;51.256;22.478;2023-03-01T03:53:21;115.95;;;59.63;;
26742;SDS011;14341;51.256;22.478;2023-03-01T03:56:25;115.18;;;61.08;;
26742;SDS011;14341;51.256;22.478;2023-03-01T03:59:29;112.03;;;57.53;;
26742;SDS011;14341;51.256;22.478;2023-03-01T04:02:33;115.20;;;58.35;;
26742;SDS011;14341;51.256;22.478;2023-03-01T04:05:38;116.03;;;59.45;;
26742;SDS011;14341;51.256;22.478;2023-03-01T04:08:42;115.43;;;57.40;;
26742;SDS011;14341;51.256;22.478;2023-03-01T04:11:45;111.30;;;59.85;;
26742;SDS011;14341;51.256;22.478;2023-03-01T04:14:48;113.28;;;59.80;;
26742;SDS011;14341;51.256;22.478;2023-03-01T04:17:52;102.80;;;57.08;;
26742;SDS011;14341;51.256;22.478;2023-03-01T04:20:57;109.63;;;57.35;;
26742;SDS011;14341;51.256;22.478;2023-03-01T04:24:00;108.82;;;56.05;;
26742;SDS011;14341;51.256;22.478;2023-03-01T04:27:05;110.45;;;56.83;;
26742;SDS011;14341;51.256;22.478;2023-03-01T04:30:08;112.15;;;58.15;;
26742;SDS011;14341;51.256;22.478;2023-03-01T04:33:12;113.55;;;57.30;;
26742;SDS011;14341;51.256;22.478;2023-03-01T04:36:17;108.35;;;57.60;;
26742;SDS011;14341;51.256;22.478;2023-03-01T04:39:22;107.57;;;56.42;;
26742;SDS011;14341;51.256;22.478;2023-03-01T04:42:25;110.43;;;54.92;;
26742;SDS011;14341;51.256;22.478;2023-03-01T04:45:28;107.75;;;54.72;;
26742;SDS011;14341;51.256;22.478;2023-03-01T04:48:32;99.88;;;54.17;;
26742;SDS011;14341;51.256;22.478;2023-03-01T04:51:36;105.20;;;53.72;;
26742;SDS011;14341;51.256;22.478;2023-03-01T04:54:39;110.20;;;54.60;;
26742;SDS011;14341;51.256;22.478;2023-03-01T04:57:43;105.07;;;52.47;;
26742;SDS011;14341;51.256;22.478;2023-03-01T05:00:46;103.35;;;53.63;;
26742;SDS011;14341;51.256;22.478;2023-03-01T05:03:50;102.97;;;52.05;;
26742;SDS011;14341;51.256;22.478;2023-03-01T05:06:56;99.18;;;50.42;;
26742;SDS011;14341;51.256;22.478;2023-03-01T05:10:00;97.35;;;52.90;;
26742;SDS011;14341;51.256;22.478;2023-03-01T05:13:03;99.70;;;51.75;;
26742;SDS011;14341;51.256;22.478;2023-03-01T05:16:08;95.88;;;50.53;;
26742;SDS011;14341;51.256;22.478;2023-03-01T05:19:13;103.95;;;53.83;;
26742;SDS011;14341;51.256;22.478;2023-03-01T05:22:19;103.68;;;54.20;;
26742;SDS011;14341;51.256;22.478;2023-03-01T05:25:22;107.75;;;54.72;;
26742;SDS011;14341;51.256;22.478;2023-03-01T05:28:25;107.53;;;54.42;;
26742;SDS011;14341;51.256;22.478;2023-03-01T05:31:29;103.72;;;52.97;;
26742;SDS011;14341;51.256;22.478;2023-03-01T05:34:33;101.32;;;52.40;;
26742;SDS011;14341;51.256;22.478;2023-03-01T05:37:39;106.10;;;53.97;;
26742;SDS011;14341;51.256;22.478;2023-03-01T05:40:44;111.35;;;56.65;;
26742;SDS011;14341;51.256;22.478;2023-03-01T05:43:49;104.50;;;56.15;;
26742;SDS011;14341;51.256;22.478;2023-03-01T05:46:52;106.90;;;55.45;;
26742;SDS011;14341;51.256;22.478;2023-03-01T05:49:55;109.72;;;56.97;;
26742;SDS011;14341;51.256;22.478;2023-03-01T05:53:01;118.55;;;58.17;;
26742;SDS011;14341;51.256;22.478;2023-03-01T05:56:07;115.13;;;60.13;;
26742;SDS011;14341;51.256;22.478;2023-03-01T05:59:10;116.45;;;59.13;;
26742;SDS011;14341;51.256;22.478;2023-03-01T06:02:15;117.80;;;63.47;;
26742;SDS011;14341;51.256;22.478;2023-03-01T06:05:18;118.55;;;61.80;;
26742;SDS011;14341;51.256;22.478;2023-03-01T06:08:23;114.85;;;58.42;;
26742;SDS011;14341;51.256;22.478;2023-03-01T06:11:28;112.13;;;57.15;;
26742;SDS011;14341;51.256;22.478;2023-03-01T06:14:32;107.55;;;56.97;;
26742;SDS011;14341;51.256;22.478;2023-03-01T06:17:35;121.90;;;60.00;;
26742;SDS011;14341;51.256;22.478;2023-03-01T06:20:40;122.95;;;58.63;;
26742;SDS011;14341;51.256;22.478;2023-03-01T06:23:44;120.78;;;59.33;;
26742;SDS011;14341;51.256;22.478;2023-03-01T06:26:47;120.05;;;59.22;;
26742;SDS011;14341;51.256;22.478;2023-03-01T06:29:51;120.70;;;58.10;;
26742;SDS011;14341;51.256;22.478;2023-03-01T06:32:54;114.30;;;57.72;;
26742;SDS011;14341;51.256;22.478;2023-03-01T06:36:02;106.20;;;55.30;;
26742;SDS011;14341;51.256;22.478;2023-03-01T06:39:07;107.00;;;55.05;;
26742;SDS011;14341;51.256;22.478;2023-03-01T06:42:10;104.18;;;54.00;;
26742;SDS011;14341;51.256;22.478;2023-03-01T06:45:14;106.60;;;55.42;;
26742;SDS011;14341;51.256;22.478;2023-03-01T06:48:19;105.32;;;54.75;;
26742;SDS011;14341;51.256;22.478;2023-03-01T06:51:22;100.43;;;49.05;;
26742;SDS011;14341;51.256;22.478;2023-03-01T06:54:27;96.97;;;49.60;;
26742;SDS011;14341;51.256;22.478;2023-03-01T06:57:31;88.63;;;49.20;;
26742;SDS011;14341;51.256;22.478;2023-03-01T07:00:34;95.78;;;50.30;;
26742;SDS011;14341;51.256;22.478;2023-03-01T07:03:37;97.88;;;50.33;;
26742;SDS011;14341;51.256;22.478;2023-03-01T07:06:40;95.30;;;46.95;;
26742;SDS011;14341;51.256;22.478;2023-03-01T07:09:45;96.43;;;48.58;;
26742;SDS011;14341;51.256;22.478;2023-03-01T07:12:49;90.30;;;45.60;;
26742;SDS011;14341;51.256;22.478;2023-03-01T07:15:52;96.15;;;46.80;;
26742;SDS011;14341;51.256;22.478;2023-03-01T07:18:55;95.97;;;47.85;;
26742;SDS011;14341;51.256;22.478;2023-03-01T07:22:00;90.60;;;45.92;;
26742;SDS011;14341;51.256;22.478;2023-03-01T07:25:05;100.40;;;48.55;;
26742;SDS011;14341;51.256;22.478;2023-03-01T07:28:08;91.57;;;44.58;;
26742;SDS011;14341;51.256;22.478;2023-03-01T07:31:11;95.63;;;46.38;;
26742;SDS011;14341;51.256;22.478;2023-03-01T07:34:15;91.43;;;45.13;;
26742;SDS011;14341;51.256;22.478;2023-03-01T07:37:18;92.82;;;46.97;;
26742;SDS011;14341;51.256;22.478;2023-03-01T07:40:23;90.03;;;44.92;;
26742;SDS011;14341;51.256;22.478;2023-03-01T07:43:26;95.25;;;46.13;;
26742;SDS011;14341;51.256;22.478;2023-03-01T07:46:29;116.32;;;54.92;;
26742;SDS011;14341;51.256;22.478;2023-03-01T07:49:33;89.93;;;44.38;;
26742;SDS011;14341;51.256;22.478;2023-03-01T07:52:37;107.72;;;46.20;;
26742;SDS011;14341;51.256;22.478;2023-03-01T07:55:42;92.20;;;43.70;;
26742;SDS011;14341;51.256;22.478;2023-03-01T07:58:45;97.85;;;47.58;;
26742;SDS011;14341;51.256;22.478;2023-03-01T08:01:51;99.25;;;49.20;;
26742;SDS011;14341;51.256;22.478;2023-03-01T08:04:54;111.35;;;51.83;;
26742;SDS011;14341;51.256;22.478;2023-03-01T08:07:57;91.63;;;44.72;;
26742;SDS011;14341;51.256;22.478;2023-03-01T08:11:03;83.93;;;42.50;;
26742;SDS011;14341;51.256;22.478;2023-03-01T08:14:07;83.95;;;42.05;;
26742;SDS011;14341;51.256;22.478;2023-03-01T08:17:13;81.10;;;40.03;;
26742;SDS011;14341;51.256;22.478;2023-03-01T08:20:16;76.63;;;39.47;;
26742;SDS011;14341;51.256;22.478;2023-03-01T08:23:20;76.25;;;38.20;;
26742;SDS011;14341;51.256;22.478;2023-03-01T08:26:25;71.90;;;37.92;;
26742;SDS011;14341;51.256;22.478;2023-03-01T08:29:29;72.68;;;38.13;;
26742;SDS011;14341;51.256;22.478;2023-03-01T08:32:35;77.82;;;39.53;;
26742;SDS011;14341;51.256;22.478;2023-03-01T08:35:40;74.32;;;37.33;;
26742;SDS011;14341;51.256;22.478;2023-03-01T08:38:43;65.30;;;33.42;;
26742;SDS011;14341;51.256;22.478;2023-03-01T08:41:48;69.93;;;35.15;;
26742;SDS011;14341;51.256;22.478;2023-03-01T08:44:51;79.00;;;35.90;;
26742;SDS011;14341;51.256;22.478;2023-03-01T08:47:54;54.75;;;28.67;;
26742;SDS011;14341;51.256;22.478;2023-03-01T08:51:06;66.57;;;31.27;;
26742;SDS011;14341;51.256;22.478;2023-03-01T08:54:11;53.47;;;28.08;;
26742;SDS011;14341;51.256;22.478;2023-03-01T08:57:17;58.88;;;27.98;;
26742;SDS011;14341;51.256;22.478;2023-03-01T09:00:21;56.50;;;29.10;;
26742;SDS011;14341;51.256;22.478;2023-03-01T09:03:24;66.15;;;33.22;;
26742;SDS011;14341;51.256;22.478;2023-03-01T09:06:30;62.67;;;32.15;;
26742;SDS011;14341;51.256;22.478;2023-03-01T09:09:35;67.63;;;33.45;;
26742;SDS011;14341;51.256;22.478;2023-03-01T09:12:40;69.85;;;33.78;;
26742;SDS011;14341;51.256;22.478;2023-03-01T09:15:43;58.92;;;30.85;;
26742;SDS011;14341;51.256;22.478;2023-03-01T09:18:48;56.58;;;29.90;;
26742;SDS011;14341;51.256;22.478;2023-03-01T09:21:52;59.35;;;31.38;;
26742;SDS011;14341;51.256;22.478;2023-03-01T09:24:57;51.53;;;28.30;;
26742;SDS011;14341;51.256;22.478;2023-03-01T09:28:01;56.33;;;28.30;;
26742;SDS011;14341;51.256;22.478;2023-03-01T09:31:05;53.33;;;29.58;;
26742;SDS011;14341;51.256;22.478;2023-03-01T09:34:08;54.15;;;28.40;;
26742;SDS011;14341;51.256;22.478;2023-03-01T09:37:12;54.90;;;30.13;;
26742;SDS011;14341;51.256;22.478;2023-03-01T09:40:17;46.58;;;26.58;;
26742;SDS011;14341;51.256;22.478;2023-03-01T09:43:25;56.60;;;29.10;;
26742;SDS011;14341;51.256;22.478;2023-03-01T09:46:35;56.60;;;29.92;;
26742;SDS011;14341;51.256;22.478;2023-03-01T09:49:43;52.53;;;28.90;;
26742;SDS011;14341;51.256;22.478;2023-03-01T09:52:50;57.95;;;29.17;;
26742;SDS011;14341;51.256;22.478;2023-03-01T09:56:02;52.80;;;29.02;;
26742;SDS011;14341;51.256;22.478;2023-03-01T09:59:15;52.00;;;27.17;;
26742;SDS011;14341;51.256;22.478;2023-03-01T10:02:25;51.35;;;25.60;;
26742;SDS011;14341;51.256;22.478;2023-03-01T10:05:35;46.87;;;23.73;;
26742;SDS011;14341;51.256;22.478;2023-03-01T10:08:46;48.60;;;27.00;;
26742;SDS011;14341;51.256;22.478;2023-03-01T10:11:54;52.38;;;26.38;;
26742;SDS011;14341;51.256;22.478;2023-03-01T10:15:02;49.38;;;26.05;;
26742;SDS011;14341;51.256;22.478;2023-03-01T10:18:12;52.47;;;25.85;;
26742;SDS011;14341;51.256;22.478;2023-03-01T10:21:20;54.45;;;28.73;;
26742;SDS011;14341;51.256;22.478;2023-03-01T10:24:24;52.72;;;25.90;;
26742;SDS011;14341;51.256;22.478;2023-03-01T10:27:29;48.70;;;26.25;;
26742;SDS011;14341;51.256;22.478;2023-03-01T10:30:43;49.15;;;27.38;;
26742;SDS011;14341;51.256;22.478;2023-03-01T10:33:47;46.35;;;26.27;;
26742;SDS011;14341;51.256;22.478;2023-03-01T10:36:56;49.08;;;25.83;;
26742;SDS011;14341;51.256;22.478;2023-03-01T10:40:05;45.28;;;24.63;;
26742;SDS011;14341;51.256;22.478;2023-03-01T10:43:11;40.30;;;23.15;;
26742;SDS011;14341;51.256;22.478;2023-03-01T10:46:26;44.42;;;25.02;;
26742;SDS011;14341;51.256;22.478;2023-03-01T10:49:32;44.70;;;24.52;;
26742;SDS011;14341;51.256;22.478;2023-03-01T10:52:37;45.55;;;24.35;;
26742;SDS011;14341;51.256;22.478;2023-03-01T10:55:43;40.03;;;22.98;;
26742;SDS011;14341;51.256;22.478;2023-03-01T10:58:56;40.70;;;22.80;;
26742;SDS011;14341;51.256;22.478;2023-03-01T11:02:07;38.67;;;19.63;;
26742;SDS011;14341;51.256;22.478;2023-03-01T11:05:26;40.45;;;22.20;;
26742;SDS011;14341;51.256;22.478;2023-03-01T11:08:36;42.78;;;23.75;;
26742;SDS011;14341;51.256;22.478;2023-03-01T11:11:43;44.60;;;23.92;;
26742;SDS011;14341;51.256;22.478;2023-03-01T11:14:48;39.88;;;23.13;;
26742;SDS011;14341;51.256;22.478;2023-03-01T11:17:54;42.35;;;23.20;;
26742;SDS011;14341;51.256;22.478;2023-03-01T11:21:14;36.30;;;21.00;;
26742;SDS011;14341;51.256;22.478;2023-03-01T11:24:18;34.60;;;20.15;;
26742;SDS011;14341;51.256;22.478;2023-03-01T11:27:23;38.97;;;21.98;;
26742;SDS011;14341;51.256;22.478;2023-03-01T11:30:28;42.92;;;22.13;;
26742;SDS011;14341;51.256;22.478;2023-03-01T11:33:37;36.72;;;20.50;;
26742;SDS011;14341;51.256;22.478;2023-03-01T11:36:46;37.38;;;20.67;;
26742;SDS011;14341;51.256;22.478;2023-03-01T11:39:58;35.15;;;21.83;;
26742;SDS011;14341;51.256;22.478;2023-03-01T11:43:09;36.28;;;20.65;;
26742;SDS011;14341;51.256;22.478;2023-03-01T11:50:09;34.97;;;20.60;;
26742;SDS011;14341;51.256;22.478;2023-03-01T11:53:34;34.33;;;20.45;;
26742;SDS011;14341;51.256;22.478;2023-03-01T11:56:53;33.20;;;20.95;;
26742;SDS011;14341;51.256;22.478;2023-03-01T12:00:06;32.08;;;18.52;;
26742;SDS011;14341;51.256;22.478;2023-03-01T12:03:33;37.45;;;20.73;;
26742;SDS011;14341;51.256;22.478;2023-03-01T12:06:59;33.40;;;20.40;;
26742;SDS011;14341;51.256;22.478;2023-03-01T12:10:13;35.70;;;20.10;;
26742;SDS011;14341;51.256;22.478;2023-03-01T12:13:30;35.53;;;20.30;;
26742;SDS011;14341;51.256;22.478;2023-03-01T12:17:00;31.63;;;19.52;;
26742;SDS011;14341;51.256;22.478;2023-03-01T12:20:26;31.23;;;19.00;;
26742;SDS011;14341;51.256;22.478;2023-03-01T12:27:18;33.67;;;20.10;;
26742;SDS011;14341;51.256;22.478;2023-03-01T12:30:36;33.88;;;20.42;;
26742;SDS011;14341;51.256;22.478;2023-03-01T12:33:52;33.78;;;20.98;;
26742;SDS011;14341;51.256;22.478;2023-03-01T12:44:11;35.33;;;20.23;;
26742;SDS011;14341;51.256;22.478;2023-03-01T12:47:44;34.45;;;19.88;;
26742;SDS011;14341;51.256;22.478;2023-03-01T12:50:57;31.15;;;21.00;;
26742;SDS011;14341;51.256;22.478;2023-03-01T12:54:07;34.75;;;20.98;;
26742;SDS011;14341;51.256;22.478;2023-03-01T12:57:20;31.95;;;18.98;;
26742;SDS011;14341;51.256;22.478;2023-03-01T13:00:31;30.70;;;18.73;;
26742;SDS011;14341;51.256;22.478;2023-03-01T13:03:53;31.40;;;18.65;;
26742;SDS011;14341;51.256;22.478;2023-03-01T13:07:12;30.25;;;18.38;;
26742;SDS011;14341;51.256;22.478;2023-03-01T13:10:24;33.53;;;19.58;;
26742;SDS011;14341;51.256;22.478;2023-03-01T13:13:34;32.97;;;18.67;;
26742;SDS011;14341;51.256;22.478;2023-03-01T13:16:41;31.58;;;17.98;;
26742;SDS011;14341;51.256;22.478;2023-03-01T13:19:55;27.88;;;17.92;;
26742;SDS011;14341;51.256;22.478;2023-03-01T13:23:04;29.38;;;18.13;;
26742;SDS011;14341;51.256;22.478;2023-03-01T13:26:15;37.20;;;20.52;;
26742;SDS011;14341;51.256;22.478;2023-03-01T13:29:26;32.08;;;19.35;;
26742;SDS011;14341;51.256;22.478;2023-03-01T13:32:30;33.90;;;20.42;;
26742;SDS011;14341;51.256;22.478;2023-03-01T13:35:50;31.80;;;18.38;;
26742;SDS011;14341;51.256;22.478;2023-03-01T13:38:55;33.55;;;19.05;;
26742;SDS011;14341;51.256;22.478;2023-03-01T13:42:00;32.42;;;19.45;;
26742;SDS011;14341;51.256;22.478;2023-03-01T13:45:12;32.78;;;19.48;;
26742;SDS011;14341;51.256;22.478;2023-03-01T13:48:26;29.60;;;17.58;;
26742;SDS011;14341;51.256;22.478;2023-03-01T13:51:31;30.90;;;18.70;;
26742;SDS011;14341;51.256;22.478;2023-03-01T13:54:35;29.52;;;18.00;;
26742;SDS011;14341;51.256;22.478;2023-03-01T13:57:42;28.90;;;17.42;;
26742;SDS011;14341;51.256;22.478;2023-03-01T14:00:54;29.67;;;18.05;;
26742;SDS011;14341;51.256;22.478;2023-03-01T14:03:59;29.65;;;18.25;;
26742;SDS011;14341;51.256;22.478;2023-03-01T14:07:10;30.92;;;18.00;;
26742;SDS011;14341;51.256;22.478;2023-03-01T14:10:14;28.83;;;18.60;;
26742;SDS011;14341;51.256;22.478;2023-03-01T14:13:23;30.40;;;18.80;;
26742;SDS011;14341;51.256;22.478;2023-03-01T14:16:38;33.75;;;19.08;;
26742;SDS011;14341;51.256;22.478;2023-03-01T14:19:47;30.27;;;19.08;;
26742;SDS011;14341;51.256;22.478;2023-03-01T14:22:58;30.67;;;19.35;;
26742;SDS011;14341;51.256;22.478;2023-03-01T14:26:05;37.17;;;20.10;;
26742;SDS011;14341;51.256;22.478;2023-03-01T14:29:23;30.23;;;19.25;;
26742;SDS011;14341;51.256;22.478;2023-03-01T14:32:30;30.35;;;18.75;;
26742;SDS011;14341;51.256;22.478;2023-03-01T14:35:35;31.38;;;19.02;;
26742;SDS011;14341;51.256;22.478;2023-03-01T14:38:41;30.52;;;18.95;;
26742;SDS011;14341;51.256;22.478;2023-03-01T14:41:45;31.80;;;18.50;;
26742;SDS011;14341;51.256;22.478;2023-03-01T14:44:49;35.33;;;19.70;;
26742;SDS011;14341;51.256;22.478;2023-03-01T14:47:56;35.20;;;20.45;;
26742;SDS011;14341;51.256;22.478;2023-03-01T14:51:04;38.65;;;20.63;;
26742;SDS011;14341;51.256;22.478;2023-03-01T14:54:18;152.57;;;70.95;;
26742;SDS011;14341;51.256;22.478;2023-03-01T14:57:25;40.10;;;23.13;;
26742;SDS011;14341;51.256;22.478;2023-03-01T15:00:29;45.90;;;23.92;;
26742;SDS011;14341;51.256;22.478;2023-03-01T15:03:37;81.10;;;38.03;;
26742;SDS011;14341;51.256;22.478;2023-03-01T15:06:44;46.20;;;26.17;;
26742;SDS011;14341;51.256;22.478;2023-03-01T15:09:48;41.50;;;23.75;;
26742;SDS011;14341;51.256;22.478;2023-03-01T15:12:52;40.78;;;23.25;;
26742;SDS011;14341;51.256;22.478;2023-03-01T15:16:00;41.95;;;23.75;;
26742;SDS011;14341;51.256;22.478;2023-03-01T15:19:16;39.70;;;23.73;;
26742;SDS011;14341;51.256;22.478;2023-03-01T15:22:21;41.75;;;24.25;;
26742;SDS011;14341;51.256;22.478;2023-03-01T15:25:28;48.70;;;27.60;;
26742;SDS011;14341;51.256;22.478;2023-03-01T15:28:34;56.65;;;32.47;;
26742;SDS011;14341;51.256;22.478;2023-03-01T15:31:42;120.45;;;61.17;;
26742;SDS011;14341;51.256;22.478;2023-03-01T15:34:47;98.60;;;54.60;;
26742;SDS011;14341;51.256;22.478;2023-03-01T15:37:51;85.13;;;47.10;;
26742;SDS011;14341;51.256;22.478;2023-03-01T15:40:54;98.75;;;52.33;;
26742;SDS011;14341;51.256;22.478;2023-03-01T15:44:00;115.72;;;62.67;;
26742;SDS011;14341;51.256;22.478;2023-03-01T15:47:27;137.40;;;73.28;;
26742;SDS011;14341;51.256;22.478;2023-03-01T15:50:35;115.38;;;61.53;;
26742;SDS011;14341;51.256;22.478;2023-03-01T15:53:41;99.22;;;49.05;;
26742;SDS011;14341;51.256;22.478;2023-03-01T15:56:55;78.38;;;40.05;;
26742;SDS011;14341;51.256;22.478;2023-03-01T15:59:58;82.90;;;42.35;;
26742;SDS011;14341;51.256;22.478;2023-03-01T16:03:05;103.15;;;48.63;;
26742;SDS011;14341;51.256;22.478;2023-03-01T16:06:12;140.50;;;56.92;;
26742;SDS011;14341;51.256;22.478;2023-03-01T16:09:16;146.82;;;63.70;;
26742;SDS011;14341;51.256;22.478;2023-03-01T16:12:19;195.20;;;76.22;;
26742;SDS011;14341;51.256;22.478;2023-03-01T16:15:24;252.32;;;91.35;;
26742;SDS011;14341;51.256;22.478;2023-03-01T16:18:33;200.80;;;79.22;;
26742;SDS011;14341;51.256;22.478;2023-03-01T16:21:38;205.10;;;78.47;;
26742;SDS011;14341;51.256;22.478;2023-03-01T16:24:41;163.95;;;63.67;;
26742;SDS011;14341;51.256;22.478;2023-03-01T16:27:45;151.35;;;64.53;;
26742;SDS011;14341;51.256;22.478;2023-03-01T16:30:54;149.48;;;64.63;;
26742;SDS011;14341;51.256;22.478;2023-03-01T16:33:58;160.38;;;69.80;;
26742;SDS011;14341;51.256;22.478;2023-03-01T16:37:03;174.80;;;71.90;;
26742;SDS011;14341;51.256;22.478;2023-03-01T16:40:14;187.63;;;78.85;;
26742;SDS011;14341;51.256;22.478;2023-03-01T16:43:20;205.35;;;86.88;;
26742;SDS011;14341;51.256;22.478;2023-03-01T16:46:24;261.90;;;111.80;;
26742;SDS011;14341;51.256;22.478;2023-03-01T16:49:28;308.33;;;132.13;;
26742;SDS011;14341;51.256;22.478;2023-03-01T16:52:34;311.05;;;133.45;;
26742;SDS011;14341;51.256;22.478;2023-03-01T16:55:37;356.35;;;143.88;;
26742;SDS011;14341;51.256;22.478;2023-03-01T16:58:46;334.02;;;145.15;;
26742;SDS011;14341;51.256;22.478;2023-03-01T17:01:50;328.90;;;147.82;;
26742;SDS011;14341;51.256;22.478;2023-03-01T17:04:54;318.33;;;146.00;;
26742;SDS011;14341;51.256;22.478;2023-03-01T17:07:59;343.50;;;153.45;;
26742;SDS011;14341;51.256;22.478;2023-03-01T17:11:04;323.88;;;141.48;;
26742;SDS011;14341;51.256;22.478;2023-03-01T17:14:09;324.15;;;140.25;;
26742;SDS011;14341;51.256;22.478;2023-03-01T17:17:12;371.70;;;172.07;;
26742;SDS011;14341;51.256;22.478;2023-03-01T17:20:16;376.67;;;176.35;;
26742;SDS011;14341;51.256;22.478;2023-03-01T17:23:21;363.75;;;163.60;;
26742;SDS011;14341;51.256;22.478;2023-03-01T17:26:24;422.45;;;186.40;;
26742;SDS011;14341;51.256;22.478;2023-03-01T17:29:29;466.13;;;191.00;;
26742;SDS011;14341;51.256;22.478;2023-03-01T17:32:33;467.67;;;189.80;;
26742;SDS011;14341;51.256;22.478;2023-03-01T17:35:37;437.15;;;172.85;;
26742;SDS011;14341;51.256;22.478;2023-03-01T17:38:42;548.75;;;200.90;;
26742;SDS011;14341;51.256;22.478;2023-03-01T17:41:47;308.23;;;129.23;;
26742;SDS011;14341;51.256;22.478;2023-03-01T17:44:51;297.85;;;132.25;;
26742;SDS011;14341;51.256;22.478;2023-03-01T17:47:54;343.98;;;148.02;;
26742;SDS011;14341;51.256;22.478;2023-03-01T17:50:57;317.90;;;145.10;;
26742;SDS011;14341;51.256;22.478;2023-03-01T17:54:05;319.98;;;145.00;;
26742;SDS011;14341;51.256;22.478;2023-03-01T17:57:08;314.83;;;144.80;;
26742;SDS011;14341;51.256;22.478;2023-03-01T18:00:12;298.00;;;136.52;;
26742;SDS011;14341;51.256;22.478;2023-03-01T18:03:17;337.33;;;146.75;;
26742;SDS011;14341;51.256;22.478;2023-03-01T18:06:22;367.95;;;150.98;;